Time;durP1;ratioP1;P1;durP2;ratioP2;P2;SDS_P1;SDS_P2;PMS_P1;PMS_P2;Temp;Humidity;BMP_temperature;BMP_pressure;BME280_temperature;BME280_humidity;BME280_pressure;Samples;Min_cycle;Max_cycle;Signal;HPM_P1;HPM_P2
2022/07/05 00:01:02;;;;;;;2.50;0.90;;;16.70;99.90;;;;;;5076937;28;20074;-54
2022/07/05 00:03:28;;;;;;;1.73;0.80;;;16.60;99.90;;;;;;5075888;28;20078;-51
2022/07/05 00:05:54;;;;;;;1.67;0.90;;;16.50;99.90;;;;;;5075803;28;20033;-54
2022/07/05 00:08:20;;;;;;;2.78;1.00;;;16.60;99.90;;;;;;5076968;28;20487;-55
2022/07/05 00:10:47;;;;;;;2.38;0.98;;;16.60;99.90;;;;;;5075805;28;20058;-55
2022/07/05 00:13:13;;;;;;;1.98;0.90;;;16.60;99.90;;;;;;5076820;28;20021;-54
2022/07/05 00:15:39;;;;;;;5.30;1.10;;;16.50;99.90;;;;;;5076458;28;20067;-56
2022/07/05 00:18:05;;;;;;;2.05;1.00;;;16.40;99.90;;;;;;5075449;28;20060;-52
2022/07/05 00:20:32;;;;;;;1.30;0.98;;;16.40;99.90;;;;;;5075470;28;20062;-56
2022/07/05 00:22:57;;;;;;;1.13;1.00;;;16.30;99.90;;;;;;5076335;28;20020;-55
2022/07/05 00:25:23;;;;;;;2.67;0.90;;;16.40;99.90;;;;;;5076879;28;20021;-57
2022/07/05 00:27:49;;;;;;;1.83;0.98;;;16.30;99.90;;;;;;5076820;28;20101;-53
2022/07/05 00:30:15;;;;;;;1.10;1.00;;;16.30;99.90;;;;;;5076499;28;20024;-53
2022/07/05 00:32:40;;;;;;;2.22;0.93;;;16.30;99.90;;;;;;5076451;28;20104;-54
2022/07/05 00:35:07;;;;;;;1.42;1.02;;;16.20;99.90;;;;;;5075747;28;20086;-54
2022/07/05 00:37:33;;;;;;;1.17;1.05;;;16.20;99.90;;;;;;5075039;28;20025;-52
2022/07/05 00:39:59;;;;;;;2.65;1.30;;;16.20;99.90;;;;;;5075961;28;20078;-51
2022/07/05 00:42:24;;;;;;;1.35;0.90;;;16.30;99.90;;;;;;5075151;28;20422;-51
2022/07/05 00:44:50;;;;;;;1.48;0.90;;;16.30;99.90;;;;;;5076610;28;20021;-53
2022/07/05 00:47:16;;;;;;;1.08;0.82;;;16.30;99.90;;;;;;5075823;28;20028;-53
2022/07/05 00:49:42;;;;;;;1.38;0.90;;;16.20;99.90;;;;;;5076110;28;20031;-52
2022/07/05 00:52:09;;;;;;;2.00;0.90;;;16.20;99.90;;;;;;5076118;28;20075;-52
2022/07/05 00:54:36;;;;;;;2.00;0.90;;;16.20;99.90;;;;;;5076027;28;20104;-52
2022/07/05 00:57:03;;;;;;;2.53;1.00;;;16.10;99.90;;;;;;5074743;28;20028;-50
2022/07/05 00:59:30;;;;;;;3.15;0.93;;;16.00;99.90;;;;;;5074602;28;20063;-51
2022/07/05 01:01:56;;;;;;;3.67;1.25;;;15.90;99.90;;;;;;5075399;28;20028;-53
2022/07/05 01:04:22;;;;;;;1.90;1.02;;;15.80;99.90;;;;;;5075803;28;20024;-56
2022/07/05 01:06:50;;;;;;;1.25;1.13;;;15.80;99.90;;;;;;5074755;28;20028;-50
2022/07/05 01:09:18;;;;;;;2.67;1.15;;;15.70;99.90;;;;;;5075952;28;20020;-52
2022/07/05 01:11:44;;;;;;;0.95;0.82;;;15.80;99.90;;;;;;5075644;28;20104;-56
2022/07/05 01:14:15;;;;;;;1.80;1.40;;;15.70;99.90;;;;;;5074773;28;20026;-53
2022/07/05 01:16:41;;;;;;;7.83;1.50;;;15.80;99.90;;;;;;5075732;28;20031;-50
2022/07/05 01:19:11;;;;;;;2.58;0.85;;;15.80;99.90;;;;;;5075749;28;20025;-51
2022/07/05 01:21:41;;;;;;;2.25;1.00;;;15.80;99.90;;;;;;5075539;28;20016;-51
2022/07/05 01:24:08;;;;;;;1.73;0.93;;;15.80;99.90;;;;;;5074294;28;20054;-51
2022/07/05 01:26:34;;;;;;;1.35;0.88;;;15.90;99.90;;;;;;5075674;28;20029;-51
2022/07/05 01:29:00;;;;;;;1.52;0.98;;;16.00;99.90;;;;;;5074323;28;20029;-55
2022/07/05 01:31:26;;;;;;;2.20;1.00;;;15.90;99.90;;;;;;5074092;28;20031;-56
2022/07/05 01:33:52;;;;;;;2.83;1.15;;;15.90;99.90;;;;;;5075366;28;20074;-56
2022/07/05 01:36:18;;;;;;;3.42;0.95;;;15.90;99.90;;;;;;5074129;28;20025;-54
2022/07/05 01:38:44;;;;;;;2.60;1.48;;;15.90;99.90;;;;;;5074324;28;20078;-56
2022/07/05 01:41:10;;;;;;;3.13;0.80;;;15.90;99.90;;;;;;5075134;28;20042;-53
2022/07/05 01:43:35;;;;;;;4.60;1.00;;;16.00;99.90;;;;;;5075116;28;20020;-54
2022/07/05 01:46:04;;;;;;;2.22;1.20;;;16.10;99.90;;;;;;5075372;28;20021;-54
2022/07/05 01:48:33;;;;;;;2.30;1.27;;;16.10;99.90;;;;;;5073797;28;20025;-54
2022/07/05 01:51:06;;;;;;;1.10;1.00;;;16.00;99.90;;;;;;5074396;28;20024;-56
2022/07/05 01:53:33;;;;;;;1.52;1.08;;;15.80;99.90;;;;;;5074983;28;20039;-55
2022/07/05 01:56:00;;;;;;;2.88;1.23;;;15.70;99.90;;;;;;5073700;28;20434;-54
2022/07/05 01:58:27;;;;;;;3.13;1.63;;;15.70;99.90;;;;;;5074790;28;20035;-54
2022/07/05 02:00:55;;;;;;;2.80;1.35;;;15.50;99.90;;;;;;5074721;28;20021;-56
2022/07/05 02:03:21;;;;;;;2.60;1.77;;;15.40;99.90;;;;;;5073481;28;20025;-55
2022/07/05 02:05:48;;;;;;;1.88;1.20;;;15.40;99.90;;;;;;5074792;28;20052;-53
2022/07/05 02:08:15;;;;;;;1.67;1.30;;;15.40;99.90;;;;;;5074633;28;20025;-55
2022/07/05 02:10:41;;;;;;;2.40;1.40;;;15.40;99.90;;;;;;5073091;28;20452;-57
2022/07/05 02:13:08;;;;;;;2.15;1.15;;;15.50;99.90;;;;;;5074455;28;20119;-56
2022/07/05 02:15:36;;;;;;;3.13;1.30;;;15.50;99.90;;;;;;5074543;28;20059;-58
2022/07/05 02:18:03;;;;;;;1.35;1.23;;;15.60;99.90;;;;;;5073489;28;20499;-54
2022/07/05 02:20:30;;;;;;;1.38;1.00;;;15.60;99.90;;;;;;5073359;28;20111;-58
2022/07/05 02:22:56;;;;;;;2.00;1.40;;;15.60;99.90;;;;;;5073717;28;20027;-55
2022/07/05 02:25:22;;;;;;;1.60;1.30;;;15.50;99.90;;;;;;5074394;28;20021;-56
2022/07/05 02:27:49;;;;;;;2.15;1.30;;;15.40;99.90;;;;;;5072986;28;20438;-57
2022/07/05 02:30:15;;;;;;;1.95;1.25;;;15.40;99.90;;;;;;5074317;28;20020;-58
2022/07/05 02:32:41;;;;;;;2.72;1.55;;;15.40;99.90;;;;;;5073149;28;20034;-56
2022/07/05 02:35:08;;;;;;;1.92;1.27;;;15.20;99.90;;;;;;5074116;28;20032;-58
2022/07/05 02:37:35;;;;;;;2.05;1.40;;;15.20;99.90;;;;;;5073965;28;20085;-52
2022/07/05 02:40:00;;;;;;;5.47;1.52;;;15.20;99.90;;;;;;5074158;28;20021;-52
2022/07/05 02:42:26;;;;;;;1.38;1.27;;;15.20;99.90;;;;;;5074086;28;20031;-54
2022/07/05 02:44:52;;;;;;;2.85;1.58;;;15.30;99.90;;;;;;5073912;28;20027;-52
2022/07/05 02:47:18;;;;;;;2.40;1.48;;;15.30;99.90;;;;;;5073823;28;20111;-55
2022/07/05 02:49:43;;;;;;;10.35;5.22;;;15.30;99.90;;;;;;5073189;28;20030;-54
2022/07/05 02:52:09;;;;;;;5.18;2.60;;;15.30;99.90;;;;;;5072559;28;20044;-54
2022/07/05 02:54:35;;;;;;;11.38;2.42;;;15.20;99.90;;;;;;5073985;28;20029;-54
2022/07/05 02:57:00;;;;;;;5.25;2.30;;;15.10;99.90;;;;;;5072486;28;20052;-58
2022/07/05 02:59:26;;;;;;;17.30;5.43;;;15.00;99.90;;;;;;5073716;28;20027;-55
2022/07/05 03:01:52;;;;;;;2.97;1.80;;;14.90;99.90;;;;;;5073932;28;20033;-54
2022/07/05 03:04:18;;;;;;;3.95;1.60;;;14.80;99.90;;;;;;5073572;28;20099;-54
2022/07/05 03:06:44;;;;;;;2.47;1.60;;;14.70;99.90;;;;;;5072424;28;20016;-51
2022/07/05 03:09:10;;;;;;;3.33;1.52;;;14.70;99.90;;;;;;5072610;28;20031;-54
2022/07/05 03:11:36;;;;;;;2.70;1.60;;;14.70;99.90;;;;;;5073878;28;20031;-58
2022/07/05 03:14:01;;;;;;;2.47;1.23;;;14.90;99.90;;;;;;5073856;28;20020;-57
2022/07/05 03:16:29;;;;;;;5.32;2.85;;;14.90;99.90;;;;;;5073576;28;20017;-54
2022/07/05 03:18:54;;;;;;;3.20;2.00;;;14.80;99.90;;;;;;5073666;28;20032;-56
2022/07/05 03:21:20;;;;;;;3.72;1.60;;;14.80;99.90;;;;;;5072497;28;20020;-59
2022/07/05 03:23:46;;;;;;;10.50;4.63;;;14.90;99.90;;;;;;5073195;28;20468;-55
2022/07/05 03:26:12;;;;;;;4.57;1.45;;;14.90;99.90;;;;;;5073360;28;20025;-53
2022/07/05 03:28:37;;;;;;;4.07;1.65;;;14.90;99.90;;;;;;5072098;28;20028;-52
2022/07/05 03:31:03;;;;;;;2.95;1.75;;;14.90;99.90;;;;;;5073306;28;20391;-53
2022/07/05 03:33:29;;;;;;;6.18;1.48;;;14.80;99.90;;;;;;5073303;28;20028;-56
2022/07/05 03:35:54;;;;;;;4.00;2.22;;;14.80;99.90;;;;;;5073283;28;20028;-54
2022/07/05 03:38:20;;;;;;;9.95;5.13;;;14.80;99.90;;;;;;5072627;28;20021;-58
2022/07/05 03:40:45;;;;;;;3.10;1.52;;;14.80;99.90;;;;;;5073178;28;20024;-56
2022/07/05 03:43:11;;;;;;;3.95;1.83;;;14.80;99.90;;;;;;5073087;28;20044;-57
2022/07/05 03:45:37;;;;;;;11.88;4.63;;;14.80;99.90;;;;;;5071913;28;20031;-56
2022/07/05 03:48:03;;;;;;;11.25;3.78;;;14.80;99.90;;;;;;5071858;28;20056;-57
2022/07/05 03:50:28;;;;;;;6.40;2.08;;;14.80;99.90;;;;;;5073425;28;20024;-56
2022/07/05 03:52:54;;;;;;;3.58;2.20;;;14.70;99.90;;;;;;5073153;28;20084;-58
2022/07/05 03:55:20;;;;;;;2.08;1.75;;;14.60;99.90;;;;;;5073042;28;20020;-55
2022/07/05 03:57:47;;;;;;;7.10;2.00;;;14.70;99.90;;;;;;5071739;28;20025;-53
2022/07/05 04:00:13;;;;;;;4.75;1.63;;;14.70;99.90;;;;;;5073226;28;20021;-53
2022/07/05 04:02:39;;;;;;;5.10;2.10;;;14.80;99.90;;;;;;5072954;28;20067;-53
2022/07/05 04:05:05;;;;;;;8.15;2.25;;;14.90;99.90;;;;;;5071646;28;20056;-54
2022/07/05 04:07:31;;;;;;;3.30;1.50;;;14.90;99.90;;;;;;5072889;28;20029;-58
2022/07/05 04:09:57;;;;;;;5.00;1.80;;;14.90;99.90;;;;;;5071876;28;20032;-54
2022/07/05 04:12:22;;;;;;;3.33;1.70;;;14.90;99.90;;;;;;5073174;28;20479;-54
2022/07/05 04:14:48;;;;;;;3.83;1.95;;;15.00;99.90;;;;;;5072830;28;20021;-53
2022/07/05 04:17:14;;;;;;;7.60;1.85;;;15.10;99.90;;;;;;5073021;28;20021;-55
2022/07/05 04:19:39;;;;;;;4.68;1.65;;;15.40;99.90;;;;;;5071614;28;20020;-54
2022/07/05 04:22:05;;;;;;;7.60;2.30;;;15.70;99.90;;;;;;5071556;28;20028;-58
2022/07/05 04:24:31;;;;;;;8.13;1.98;;;16.00;99.90;;;;;;5072105;28;20119;-58
2022/07/05 04:26:57;;;;;;;11.90;4.88;;;16.20;99.90;;;;;;5071575;28;20047;-59
2022/07/05 04:29:22;;;;;;;4.97;1.85;;;16.50;99.90;;;;;;5071732;28;20017;-58
2022/07/05 04:31:48;;;;;;;6.38;1.60;;;17.00;99.90;;;;;;5072745;28;20025;-56
2022/07/05 04:34:14;;;;;;;2.45;1.52;;;17.30;99.90;;;;;;5075084;28;20028;-53
2022/07/05 04:36:40;;;;;;;3.53;1.50;;;17.60;99.90;;;;;;5075105;28;20070;-52
2022/07/05 04:39:07;;;;;;;6.63;2.08;;;18.00;99.90;;;;;;5076541;28;20016;-55
2022/07/05 04:41:33;;;;;;;5.38;1.80;;;18.20;99.90;;;;;;5076235;28;20095;-56
2022/07/05 04:43:59;;;;;;;2.85;1.00;;;18.70;99.90;;;;;;5075005;28;20024;-56
2022/07/05 04:46:25;;;;;;;3.65;1.50;;;19.00;99.90;;;;;;5075490;28;20111;-55
2022/07/05 04:48:50;;;;;;;4.40;1.67;;;19.20;99.90;;;;;;5074897;28;20051;-56
2022/07/05 04:51:16;;;;;;;3.33;1.85;;;19.40;99.90;;;;;;5075132;28;20024;-55
2022/07/05 04:53:42;;;;;;;2.45;1.40;;;19.60;99.90;;;;;;5076599;28;20033;-55
2022/07/05 04:56:08;;;;;;;5.00;1.42;;;19.80;99.90;;;;;;5074695;28;20025;-56
2022/07/05 04:58:34;;;;;;;3.38;1.65;;;20.00;99.90;;;;;;5075969;28;20028;-57
2022/07/05 05:01:00;;;;;;;2.13;1.40;;;20.20;99.90;;;;;;5075128;28;20025;-59
2022/07/05 05:03:26;;;;;;;5.90;1.45;;;20.40;99.90;;;;;;5075990;28;20028;-58
2022/07/05 05:05:51;;;;;;;6.75;2.20;;;20.70;99.90;;;;;;5076135;28;20020;-53
2022/07/05 05:08:17;;;;;;;4.03;2.05;;;20.90;99.90;;;;;;5075444;28;20028;-55
2022/07/05 05:10:43;;;;;;;2.72;1.55;;;21.30;99.90;;;;;;5075991;28;20453;-54
2022/07/05 05:13:08;;;;;;;1.98;1.48;;;21.70;99.90;;;;;;5075317;28;20037;-52
2022/07/05 05:15:34;;;;;;;8.27;1.58;;;21.90;99.90;;;;;;5076049;28;20024;-55
2022/07/05 05:18:00;;;;;;;3.88;1.50;;;22.20;99.90;;;;;;5075652;28;20437;-54
2022/07/05 05:20:26;;;;;;;6.55;1.50;;;22.40;99.90;;;;;;5074459;28;20020;-55
2022/07/05 05:22:52;;;;;;;1.90;1.45;;;22.60;99.90;;;;;;5074282;28;20107;-53
2022/07/05 05:25:17;;;;;;;3.97;1.75;;;22.90;99.90;;;;;;5074273;28;20025;-54
2022/07/05 05:27:44;;;;;;;9.40;1.85;;;23.20;99.90;;;;;;5075719;28;20021;-58
2022/07/05 05:30:11;;;;;;;5.32;2.20;;;23.40;99.90;;;;;;5075730;28;20379;-54
2022/07/05 05:32:37;;;;;;;5.18;1.65;;;23.80;99.90;;;;;;5075242;28;20039;-57
2022/07/05 05:35:03;;;;;;;2.63;1.35;;;24.10;99.90;;;;;;5077194;28;20016;-58
2022/07/05 05:37:29;;;;;;;4.72;1.40;;;24.30;99.90;;;;;;5074724;28;20089;-56
2022/07/05 05:39:55;;;;;;;4.70;1.60;;;24.60;99.90;;;;;;5075301;28;20099;-54
2022/07/05 05:42:20;;;;;;;3.40;1.67;;;24.70;99.90;;;;;;5075162;28;20025;-52
2022/07/05 05:44:46;;;;;;;1.67;1.38;;;25.10;99.90;;;;;;5074610;28;20020;-51
2022/07/05 05:47:11;;;;;;;4.75;1.35;;;25.40;99.90;;;;;;5073827;28;20020;-56
2022/07/05 05:49:37;;;;;;;3.50;1.40;;;25.60;99.90;;;;;;5074966;28;20035;-58
2022/07/05 05:52:03;;;;;;;3.60;1.40;;;26.00;99.90;;;;;;5074786;28;20024;-56
2022/07/05 05:54:28;;;;;;;10.63;3.10;;;26.30;99.20;;;;;;5073600;28;20020;-57
2022/07/05 05:56:54;;;;;;;3.70;2.03;;;26.60;98.50;;;;;;5074871;28;20062;-54
2022/07/05 05:59:20;;;;;;;7.78;1.35;;;27.10;97.90;;;;;;5073644;28;20024;-54
2022/07/05 06:01:45;;;;;;;2.30;1.35;;;27.60;96.20;;;;;;5074741;28;20021;-56
2022/07/05 06:04:11;;;;;;;2.38;1.35;;;27.60;94.70;;;;;;5074817;28;20024;-57
2022/07/05 06:06:37;;;;;;;6.40;1.80;;;28.00;94.50;;;;;;5073515;28;20033;-58
2022/07/05 06:09:02;;;;;;;3.78;1.38;;;28.30;93.20;;;;;;5074234;28;20101;-56
2022/07/05 06:11:30;;;;;;;2.85;1.08;;;28.80;92.70;;;;;;5074732;28;20037;-53
2022/07/05 06:13:55;;;;;;;7.97;1.40;;;29.30;91.70;;;;;;5073327;28;20028;-51
2022/07/05 06:16:21;;;;;;;2.80;1.30;;;29.60;88.90;;;;;;5075068;28;20162;-51
2022/07/05 06:18:47;;;;;;;2.65;1.00;;;29.90;87.00;;;;;;5073154;28;20399;-51
2022/07/05 06:21:13;;;;;;;3.85;1.20;;;29.90;86.80;;;;;;5073071;28;20395;-53
2022/07/05 06:23:38;;;;;;;2.28;1.42;;;30.10;86.50;;;;;;5074430;28;20021;-52
2022/07/05 06:26:04;;;;;;;7.28;2.85;;;30.20;82.50;;;;;;5073396;28;20025;-55
2022/07/05 06:28:31;;;;;;;3.22;1.77;;;30.30;82.50;;;;;;5073348;28;20601;-54
2022/07/05 06:30:57;;;;;;;2.50;1.20;;;30.80;80.70;;;;;;5073220;28;20487;-53
2022/07/05 06:33:23;;;;;;;4.00;1.27;;;30.90;80.80;;;;;;5074134;28;20040;-51
2022/07/05 06:35:48;;;;;;;5.07;1.48;;;31.10;80.90;;;;;;5072923;28;20119;-56
2022/07/05 06:38:14;;;;;;;8.05;1.77;;;31.60;79.10;;;;;;5073954;28;20043;-56
2022/07/05 06:40:42;;;;;;;3.88;1.30;;;31.70;76.20;;;;;;5073570;28;20028;-53
2022/07/05 06:43:10;;;;;;;3.60;1.30;;;32.30;76.80;;;;;;5072746;28;20132;-51
2022/07/05 06:45:36;;;;;;;2.30;1.50;;;32.60;75.60;;;;;;5072841;28;20017;-55
2022/07/05 06:48:04;;;;;;;2.95;1.50;;;33.30;73.20;;;;;;5072995;28;20020;-54
2022/07/05 06:50:36;;;;;;;3.85;1.55;;;33.50;70.70;;;;;;5073973;28;20471;-55
2022/07/05 06:53:05;;;;;;;5.22;1.30;;;33.80;68.90;;;;;;5073792;28;20031;-56
2022/07/05 06:55:31;;;;;;;2.70;1.17;;;34.10;68.70;;;;;;5073840;28;20082;-55
2022/07/05 06:58:07;;;;;;;3.20;1.42;;;34.50;65.20;;;;;;5072682;28;20085;-54
2022/07/05 07:03:55;;;;;;;3.22;1.70;;;34.70;63.70;;;;;;5073857;28;20047;-50
2022/07/05 07:06:20;;;;;;;3.70;1.67;;;35.40;62.90;;;;;;5072331;28;20032;-53
2022/07/05 07:11:31;;;;;;;4.07;2.47;;;36.40;61.30;;;;;;5073910;28;20117;-49
2022/07/05 07:13:56;;;;;;;6.50;2.00;;;36.80;61.10;;;;;;5073816;28;20024;-50
2022/07/05 07:16:22;;;;;;;2.95;1.60;;;36.80;59.40;;;;;;5072514;28;20025;-55
2022/07/05 07:18:48;;;;;;;3.25;1.70;;;37.00;58.80;;;;;;5072383;28;20082;-54
2022/07/05 07:21:13;;;;;;;4.50;1.60;;;37.40;57.50;;;;;;5073512;28;20021;-54
2022/07/05 07:23:39;;;;;;;4.53;1.35;;;37.90;57.30;;;;;;5073996;28;20021;-55
2022/07/05 07:26:05;;;;;;;7.65;1.50;;;38.00;57.00;;;;;;5072122;28;20017;-55
2022/07/05 07:28:30;;;;;;;3.45;1.30;;;38.40;55.70;;;;;;5073581;28;20386;-52
2022/07/05 07:30:56;;;;;;;8.07;1.95;;;38.40;56.10;;;;;;5071940;28;20025;-50
2022/07/05 07:33:22;;;;;;;2.72;1.33;;;38.20;54.80;;;;;;5071969;28;20036;-53
2022/07/05 07:35:47;;;;;;;7.78;1.80;;;38.60;54.50;;;;;;5073239;28;20028;-48
2022/07/05 07:38:13;;;;;;;3.75;1.70;;;38.70;52.70;;;;;;5073093;28;20025;-52
2022/07/05 07:40:39;;;;;;;2.42;1.35;;;39.00;53.40;;;;;;5073143;28;20045;-49
2022/07/05 07:43:04;;;;;;;10.25;1.40;;;38.80;53.70;;;;;;5073587;28;20024;-52
2022/07/05 07:45:31;;;;;;;4.50;1.65;;;38.70;54.30;;;;;;5073281;28;20024;-48
2022/07/05 07:47:56;;;;;;;3.03;1.98;;;39.30;52.10;;;;;;5073500;28;20025;-48
2022/07/05 07:50:22;;;;;;;3.75;1.20;;;38.10;53.80;;;;;;5073375;28;20039;-48
2022/07/05 07:52:48;;;;;;;3.75;1.50;;;38.80;52.90;;;;;;5073098;28;20024;-49
2022/07/05 07:55:15;;;;;;;9.20;2.13;;;39.10;52.80;;;;;;5072438;28;20024;-49
2022/07/05 07:57:41;;;;;;;4.10;1.45;;;39.80;51.30;;;;;;5071711;28;20039;-55
2022/07/05 08:00:07;;;;;;;3.95;1.38;;;40.30;51.80;;;;;;5071955;28;20383;-48
2022/07/05 08:02:33;;;;;;;3.72;1.55;;;41.20;51.00;;;;;;5072902;28;20025;-48
2022/07/05 08:04:59;;;;;;;2.53;1.70;;;41.50;50.20;;;;;;5071878;28;20039;-50
2022/07/05 08:07:25;;;;;;;1.95;1.73;;;40.90;49.50;;;;;;5071655;28;20025;-50
2022/07/05 08:09:52;;;;;;;2.35;1.42;;;40.90;49.00;;;;;;5076863;28;20021;-53
2022/07/05 08:12:18;;;;;;;2.83;1.42;;;41.30;49.00;;;;;;5075570;28;20093;-49
2022/07/05 08:14:45;;;;;;;4.43;1.70;;;41.90;48.50;;;;;;5076906;28;20025;-51
2022/07/05 08:17:11;;;;;;;5.80;1.80;;;42.30;46.90;;;;;;5075589;28;20028;-50
2022/07/05 08:22:21;;;;;;;1.70;1.48;;;42.10;46.50;;;;;;5077068;28;20032;-51
2022/07/05 08:24:47;;;;;;;2.58;1.40;;;42.40;47.60;;;;;;5076762;28;20175;-54
2022/07/05 08:27:13;;;;;;;1.63;1.48;;;43.00;47.00;;;;;;5076745;28;20059;-52
2022/07/05 08:29:38;;;;;;;3.17;1.58;;;42.70;46.10;;;;;;5077183;28;20028;-51
2022/07/05 08:32:05;;;;;;;6.45;1.63;;;42.40;46.50;;;;;;5076522;28;20024;-55
2022/07/05 08:34:31;;;;;;;4.28;1.45;;;42.40;45.90;;;;;;5075502;28;20502;-53
2022/07/05 08:36:56;;;;;;;5.70;1.52;;;42.40;45.80;;;;;;5075506;28;20024;-54
2022/07/05 08:39:22;;;;;;;3.17;1.60;;;43.00;45.60;;;;;;5076472;28;20027;-49
2022/07/05 08:41:49;;;;;;;2.28;1.60;;;43.30;45.20;;;;;;5076238;28;20020;-51
2022/07/05 08:44:21;;;;;;;3.95;1.98;;;44.00;44.20;;;;;;5076478;28;20368;-52
2022/07/05 08:46:50;;;;;;;3.78;1.50;;;44.60;42.70;;;;;;5075386;28;20028;-50
2022/07/05 08:49:24;;;;;;;4.65;1.92;;;45.00;43.60;;;;;;5075035;28;20036;-53
2022/07/05 08:51:50;;;;;;;2.38;1.80;;;44.90;42.50;;;;;;5076725;28;20039;-52
2022/07/05 08:54:16;;;;;;;4.80;1.85;;;44.40;42.10;;;;;;5075221;28;20024;-48
2022/07/05 08:56:43;;;;;;;4.22;2.00;;;44.20;43.50;;;;;;5074878;28;20471;-51
2022/07/05 08:59:09;;;;;;;3.60;1.70;;;44.60;41.90;;;;;;5075914;28;20376;-57
2022/07/05 09:01:36;;;;;;;3.88;2.08;;;44.40;41.90;;;;;;5074750;28;20030;-59
2022/07/05 09:04:05;;;;;;;4.55;1.45;;;43.90;42.30;;;;;;5074748;28;20024;-55
2022/07/05 09:06:32;;;;;;;4.78;1.90;;;42.90;41.40;;;;;;5075068;28;20085;-54
2022/07/05 09:08:59;;;;;;;2.63;1.52;;;42.10;41.30;;;;;;5075949;28;20437;-58
2022/07/05 09:11:32;;;;;;;5.55;1.92;;;41.50;43.40;;;;;;5076097;28;20036;-56
2022/07/05 09:13:58;;;;;;;3.83;1.73;;;40.50;43.90;;;;;;5075796;28;20095;-56
2022/07/05 09:16:24;;;;;;;3.53;1.60;;;39.40;44.40;;;;;;5075678;28;20480;-54
2022/07/05 09:18:51;;;;;;;3.88;1.65;;;38.30;45.80;;;;;;5075561;28;20103;-53
2022/07/05 09:21:24;;;;;;;2.97;1.42;;;37.30;46.40;;;;;;5074370;28;20035;-53
2022/07/05 09:23:56;;;;;;;1.75;1.20;;;37.80;46.60;;;;;;5076057;28;20012;-55
2022/07/05 09:26:52;;;;;;;4.47;1.75;;;39.10;46.50;;;;;;5075687;28;20077;-55
2022/07/05 09:29:21;;;;;;;5.68;1.60;;;40.90;44.70;;;;;;5070400;28;20033;-56
2022/07/05 09:31:52;;;;;;;3.27;1.80;;;41.80;42.80;;;;;;5075959;28;20146;-54
2022/07/05 09:34:30;;;;;;;4.18;1.67;;;42.20;43.10;;;;;;5075745;28;20032;-57
2022/07/05 09:37:03;;;;;;;4.28;1.80;;;43.20;42.30;;;;;;5074158;28;20036;-56
2022/07/05 09:39:29;;;;;;;3.60;2.17;;;43.70;41.70;;;;;;5074466;28;20021;-58
2022/07/05 09:42:13;;;;;;;4.22;3.38;;;43.70;41.00;;;;;;5075239;28;20509;-58
2022/07/05 09:44:46;;;;;;;2.72;1.60;;;44.10;41.20;;;;;;5075230;28;20027;-56
2022/07/05 09:47:14;;;;;;;5.20;2.05;;;43.80;39.90;;;;;;5073955;28;20021;-55
2022/07/05 09:49:51;;;;;;;3.22;1.52;;;43.60;40.60;;;;;;5074670;28;20027;-59
2022/07/05 09:52:35;;;;;;;3.40;1.83;;;43.60;40.70;;;;;;5074974;28;20021;-59
2022/07/05 09:55:11;;;;;;;2.00;1.60;;;43.60;40.00;;;;;;5073839;28;20032;-59
2022/07/05 09:57:41;;;;;;;4.10;1.67;;;43.90;40.00;;;;;;5073700;28;20028;-59
2022/07/05 10:00:07;;;;;;;4.07;1.38;;;44.20;40.10;;;;;;5073678;28;20043;-49
2022/07/05 10:02:37;;;;;;;3.47;1.92;;;44.10;39.90;;;;;;5074804;28;20021;-49
2022/07/05 10:05:23;;;;;;;2.38;1.40;;;44.00;40.00;;;;;;5074330;28;20103;-49
2022/07/05 10:07:52;;;;;;;1.90;1.30;;;43.60;39.80;;;;;;5073435;28;20031;-52
2022/07/05 10:10:18;;;;;;;2.95;1.20;;;43.60;39.80;;;;;;5074627;28;20036;-49
2022/07/05 10:12:49;;;;;;;3.17;1.10;;;43.60;40.20;;;;;;5074826;28;20024;-50
2022/07/05 10:15:18;;;;;;;2.20;1.42;;;43.50;40.00;;;;;;5074613;28;20021;-49
2022/07/05 10:17:53;;;;;;;2.33;1.20;;;42.70;39.80;;;;;;5074461;28;20024;-49
2022/07/05 10:20:42;;;;;;;2.67;1.40;;;42.50;41.00;;;;;;5074401;28;20110;-48
2022/07/05 10:23:12;;;;;;;3.20;1.17;;;42.50;39.50;;;;;;5073243;28;20021;-48
2022/07/05 10:25:40;;;;;;;3.70;1.20;;;42.30;39.50;;;;;;5074194;28;20032;-48
2022/07/05 10:28:07;;;;;;;3.58;1.23;;;40.40;40.00;;;;;;5073142;28;20029;-50
2022/07/05 10:30:34;;;;;;;4.60;1.10;;;39.20;42.20;;;;;;5073113;28;20025;-51
2022/07/05 10:33:03;;;;;;;2.03;1.00;;;38.30;43.50;;;;;;5072979;28;20058;-52
2022/07/05 10:35:29;;;;;;;3.50;1.15;;;37.30;44.30;;;;;;5072972;28;20090;-55
2022/07/05 10:37:57;;;;;;;2.22;1.20;;;36.90;44.10;;;;;;5073972;28;20032;-51
2022/07/05 10:40:23;;;;;;;2.20;1.30;;;36.60;44.90;;;;;;5074073;28;20086;-54
2022/07/05 10:42:54;;;;;;;1.58;1.08;;;36.70;45.30;;;;;;5073372;28;20032;-51
2022/07/05 10:45:31;;;;;;;1.83;0.90;;;36.80;44.70;;;;;;5074662;28;20467;-50
2022/07/05 10:48:09;;;;;;;2.95;1.17;;;36.60;46.10;;;;;;5074088;28;20031;-49
2022/07/05 10:50:58;;;;;;;2.95;1.30;;;36.60;45.50;;;;;;5072969;28;20024;-53
2022/07/05 10:53:48;;;;;;;1.10;1.00;;;36.20;45.90;;;;;;5073712;28;20074;-52
2022/07/05 10:56:14;;;;;;;3.10;0.98;;;35.70;46.80;;;;;;5073795;28;20434;-49
2022/07/05 10:58:47;;;;;;;1.50;1.02;;;35.30;46.80;;;;;;5072815;28;20029;-54
2022/07/05 11:01:18;;;;;;;1.90;1.00;;;35.00;47.20;;;;;;5072375;28;20025;-54
2022/07/05 11:03:49;;;;;;;4.40;1.58;;;34.90;48.40;;;;;;5072448;28;20016;-56
2022/07/05 11:06:22;;;;;;;9.45;1.60;;;34.60;48.20;;;;;;5073693;28;20454;-50
2022/07/05 11:09:10;;;;;;;2.25;1.20;;;34.50;48.60;;;;;;5072307;28;20031;-49
2022/07/05 11:11:42;;;;;;;3.28;1.10;;;34.40;48.70;;;;;;5068968;28;20045;-50
2022/07/05 11:14:32;;;;;;;3.85;1.42;;;34.20;49.10;;;;;;5073767;28;20021;-53
2022/07/05 11:17:15;;;;;;;8.20;1.40;;;33.40;49.80;;;;;;5070289;28;20032;-55
2022/07/05 11:20:04;;;;;;;2.80;1.55;;;33.10;50.20;;;;;;5073546;28;20020;-50
2022/07/05 11:22:30;;;;;;;3.72;1.20;;;32.60;50.00;;;;;;5072254;28;20043;-53
2022/07/05 11:24:57;;;;;;;1.92;1.30;;;32.50;50.10;;;;;;5073389;28;20024;-52
2022/07/05 11:27:23;;;;;;;2.05;1.20;;;32.40;50.80;;;;;;5072102;28;20024;-53
2022/07/05 11:29:53;;;;;;;2.03;1.40;;;32.10;51.00;;;;;;5072686;28;20025;-51
2022/07/05 11:32:28;;;;;;;8.45;1.45;;;32.00;51.10;;;;;;5073308;28;20107;-52
2022/07/05 11:34:55;;;;;;;1.70;1.05;;;31.80;51.80;;;;;;5072074;28;20054;-50
2022/07/05 11:37:30;;;;;;;4.55;1.20;;;31.80;52.10;;;;;;5072428;28;20126;-52
2022/07/05 11:40:11;;;;;;;2.10;1.40;;;31.60;51.60;;;;;;5073222;28;20099;-56
2022/07/05 11:42:39;;;;;;;1.20;1.10;;;31.50;51.40;;;;;;5071406;28;20083;-49
2022/07/05 11:45:09;;;;;;;3.25;1.52;;;31.50;50.90;;;;;;5073328;28;20021;-51
2022/07/05 11:47:35;;;;;;;2.80;1.20;;;31.40;49.90;;;;;;5072833;28;20379;-50
2022/07/05 11:50:02;;;;;;;2.15;0.95;;;31.40;50.10;;;;;;5073054;28;20086;-50
2022/07/05 11:52:29;;;;;;;1.38;1.15;;;31.40;50.80;;;;;;5072008;28;20108;-55
2022/07/05 11:54:56;;;;;;;1.15;1.05;;;31.40;51.10;;;;;;5071945;28;20060;-51
2022/07/05 11:57:24;;;;;;;4.43;1.55;;;31.10;51.60;;;;;;5077499;28;20068;-51
2022/07/05 11:59:50;;;;;;;1.52;1.10;;;31.10;52.00;;;;;;5075270;28;20029;-52
2022/07/05 12:02:16;;;;;;;2.17;1.10;;;31.10;52.40;;;;;;5072276;28;20025;-50
2022/07/05 12:04:56;;;;;;;3.45;1.30;;;31.00;52.30;;;;;;5072430;28;20154;-51
2022/07/05 12:07:30;;;;;;;2.03;1.60;;;31.10;52.40;;;;;;5073130;28;20035;-52
2022/07/05 12:12:43;;;;;;;3.88;1.23;;;30.80;52.40;;;;;;5073244;28;20078;-49
2022/07/05 12:15:11;;;;;;;3.55;1.10;;;30.80;51.40;;;;;;5072111;28;20078;-50
2022/07/05 12:17:38;;;;;;;3.83;1.17;;;30.70;52.40;;;;;;5071981;28;20052;-51
2022/07/05 12:20:05;;;;;;;1.20;0.82;;;30.70;53.00;;;;;;5071906;28;20460;-51
2022/07/05 12:22:34;;;;;;;3.38;1.23;;;30.70;52.80;;;;;;5071510;28;20025;-51
2022/07/05 12:25:03;;;;;;;2.58;1.45;;;30.70;51.70;;;;;;5073257;28;20024;-50
2022/07/05 12:27:30;;;;;;;1.70;1.10;;;30.50;51.40;;;;;;5071670;28;20062;-53
2022/07/05 12:29:57;;;;;;;2.38;1.15;;;30.50;51.30;;;;;;5071553;28;20047;-52
2022/07/05 12:32:23;;;;;;;3.97;1.40;;;30.30;52.10;;;;;;5072020;28;20031;-55
2022/07/05 12:34:48;;;;;;;2.30;1.30;;;30.20;51.30;;;;;;5071678;28;20119;-52
2022/07/05 12:37:24;;;;;;;2.35;1.63;;;30.00;52.20;;;;;;5072675;28;20025;-52
2022/07/05 12:40:02;;;;;;;3.10;1.30;;;30.00;52.10;;;;;;5071967;28;20028;-52
2022/07/05 12:42:36;;;;;;;3.58;1.15;;;29.90;52.70;;;;;;5071924;28;20025;-53
2022/07/05 12:45:13;;;;;;;4.47;1.48;;;29.80;52.90;;;;;;5071611;28;20025;-54
2022/07/05 12:47:55;;;;;;;5.25;1.48;;;29.70;52.90;;;;;;5071930;28;20026;-51
2022/07/05 12:50:29;;;;;;;3.20;1.23;;;29.80;52.90;;;;;;5071392;28;20501;-50
2022/07/05 12:58:46;;;;;;;2.25;1.23;;;29.60;53.20;;;;;;5076254;28;20039;-54
2022/07/05 13:01:19;;;;;;;1.17;1.08;;;29.60;52.90;;;;;;5075742;28;20113;-51
2022/07/05 13:04:17;;;;;;;2.35;1.10;;;29.50;52.20;;;;;;5075095;28;20066;-50
2022/07/05 13:07:03;;;;;;;2.97;1.25;;;29.50;52.30;;;;;;5063735;28;20082;-54